Terminal Aerodrome Forecast
Issued by NWS

Home | Current Version | Previous Version | Text Only | Print | Product List | Glossary On
Versions: 1 2 3 4 5 6 7 8 9 10 11 12 13 14 15 16 17 18 19 20 21 22 23 24 25 26
000
FTUS41 KGYX 180538
TAFLEB
TAF
KLEB 180538Z 1806/1906 00000KT 1/4SM FG VV001
     FM180900 00000KT 2SM BR SCT002 BKN070 BKN100
     FM181200 32005KT P6SM BKN060 BKN080
     FM182100 34007KT P6SM SCT060 SCT100
     FM190000 VRB03KT P6SM SKC=

USA.gov is the U.S. government's official web portal to all federal, state and local government web resources and services.